Terminal Aerodrome Forecast
Issued by NWS Cleveland, OH

Home | Current Version | Previous Version | Graphics & Text | Print | Product List | Glossary Off
Versions: 1 2 3 4 5 6 7 8 9 10 11 12 13 14 15

000
FTUS41 KCLE 230527
TAFTOL
TAF
KTOL 230527Z 2306/2406 29005KT P6SM FEW250
     FM231600 29012KT P6SM BKN050
     FM240000 32006KT P6SM SCT050=

USA.gov is the U.S. government's official web portal to all federal, state and local government web resources and services.